sensor_id;sensor_type;location;lat;lon;timestamp;P1;durP1;ratioP1;P2;durP2;ratioP2
36001;SDS011;22070;50.922;5.430;2024-01-07T00:00:02;27.57;;;10.90;;
36001;SDS011;22070;50.922;5.430;2024-01-07T00:02:28;29.52;;;10.60;;
36001;SDS011;22070;50.922;5.430;2024-01-07T00:07:21;24.97;;;10.27;;
36001;SDS011;22070;50.922;5.430;2024-01-07T00:09:46;24.37;;;9.20;;
36001;SDS011;22070;50.922;5.430;2024-01-07T00:12:12;21.15;;;9.10;;
36001;SDS011;22070;50.922;5.430;2024-01-07T00:14:38;26.67;;;9.47;;
36001;SDS011;22070;50.922;5.430;2024-01-07T00:17:03;21.73;;;8.40;;
36001;SDS011;22070;50.922;5.430;2024-01-07T00:19:29;22.57;;;9.23;;
36001;SDS011;22070;50.922;5.430;2024-01-07T00:21:56;22.85;;;9.10;;
36001;SDS011;22070;50.922;5.430;2024-01-07T00:24:22;20.30;;;8.83;;
36001;SDS011;22070;50.922;5.430;2024-01-07T00:26:50;23.58;;;8.30;;
36001;SDS011;22070;50.922;5.430;2024-01-07T00:29:16;22.13;;;9.03;;
36001;SDS011;22070;50.922;5.430;2024-01-07T00:31:42;21.45;;;8.70;;
36001;SDS011;22070;50.922;5.430;2024-01-07T00:34:08;22.05;;;8.90;;
36001;SDS011;22070;50.922;5.430;2024-01-07T00:36:33;22.30;;;8.77;;
36001;SDS011;22070;50.922;5.430;2024-01-07T00:38:59;25.80;;;9.53;;
36001;SDS011;22070;50.922;5.430;2024-01-07T00:41:25;24.20;;;8.90;;
36001;SDS011;22070;50.922;5.430;2024-01-07T00:43:50;28.07;;;9.57;;
36001;SDS011;22070;50.922;5.430;2024-01-07T00:46:17;21.48;;;8.73;;
36001;SDS011;22070;50.922;5.430;2024-01-07T00:48:43;24.80;;;8.93;;
36001;SDS011;22070;50.922;5.430;2024-01-07T00:51:08;24.43;;;9.07;;
36001;SDS011;22070;50.922;5.430;2024-01-07T00:53:34;29.03;;;10.73;;
36001;SDS011;22070;50.922;5.430;2024-01-07T00:55:59;27.80;;;9.73;;
36001;SDS011;22070;50.922;5.430;2024-01-07T00:58:25;29.00;;;10.03;;
36001;SDS011;22070;50.922;5.430;2024-01-07T01:00:51;24.83;;;10.18;;
36001;SDS011;22070;50.922;5.430;2024-01-07T01:03:18;24.50;;;9.77;;
36001;SDS011;22070;50.922;5.430;2024-01-07T01:05:44;28.97;;;10.20;;
36001;SDS011;22070;50.922;5.430;2024-01-07T01:08:10;29.23;;;11.17;;
36001;SDS011;22070;50.922;5.430;2024-01-07T01:10:36;35.20;;;11.30;;
36001;SDS011;22070;50.922;5.430;2024-01-07T01:13:01;28.77;;;10.37;;
36001;SDS011;22070;50.922;5.430;2024-01-07T01:15:27;27.63;;;10.60;;
36001;SDS011;22070;50.922;5.430;2024-01-07T01:17:53;26.27;;;9.90;;
36001;SDS011;22070;50.922;5.430;2024-01-07T01:20:19;29.50;;;9.77;;
36001;SDS011;22070;50.922;5.430;2024-01-07T01:22:44;29.80;;;9.95;;
36001;SDS011;22070;50.922;5.430;2024-01-07T01:25:10;24.03;;;9.43;;
36001;SDS011;22070;50.922;5.430;2024-01-07T01:27:36;25.30;;;10.40;;
36001;SDS011;22070;50.922;5.430;2024-01-07T01:30:02;21.30;;;9.25;;
36001;SDS011;22070;50.922;5.430;2024-01-07T01:32:28;19.88;;;7.93;;
36001;SDS011;22070;50.922;5.430;2024-01-07T01:34:53;25.27;;;9.40;;
36001;SDS011;22070;50.922;5.430;2024-01-07T01:37:19;21.97;;;8.00;;
36001;SDS011;22070;50.922;5.430;2024-01-07T01:39:44;25.43;;;9.87;;
36001;SDS011;22070;50.922;5.430;2024-01-07T01:42:10;19.10;;;6.83;;
36001;SDS011;22070;50.922;5.430;2024-01-07T01:44:36;26.10;;;8.83;;
36001;SDS011;22070;50.922;5.430;2024-01-07T01:47:01;23.37;;;8.93;;
36001;SDS011;22070;50.922;5.430;2024-01-07T01:49:27;23.03;;;8.93;;
36001;SDS011;22070;50.922;5.430;2024-01-07T01:51:53;21.00;;;9.13;;
36001;SDS011;22070;50.922;5.430;2024-01-07T01:54:19;19.00;;;8.40;;
36001;SDS011;22070;50.922;5.430;2024-01-07T01:56:45;20.35;;;8.85;;
36001;SDS011;22070;50.922;5.430;2024-01-07T02:01:39;22.42;;;8.65;;
36001;SDS011;22070;50.922;5.430;2024-01-07T02:04:04;21.67;;;8.13;;
36001;SDS011;22070;50.922;5.430;2024-01-07T02:06:30;24.70;;;9.60;;
36001;SDS011;22070;50.922;5.430;2024-01-07T02:08:56;23.60;;;9.43;;
36001;SDS011;22070;50.922;5.430;2024-01-07T02:11:22;16.90;;;6.73;;
36001;SDS011;22070;50.922;5.430;2024-01-07T02:13:48;16.50;;;7.37;;
36001;SDS011;22070;50.922;5.430;2024-01-07T02:16:14;27.33;;;9.20;;
36001;SDS011;22070;50.922;5.430;2024-01-07T02:18:41;27.38;;;10.20;;
36001;SDS011;22070;50.922;5.430;2024-01-07T02:21:09;27.73;;;10.30;;
36001;SDS011;22070;50.922;5.430;2024-01-07T02:23:36;29.38;;;10.55;;
36001;SDS011;22070;50.922;5.430;2024-01-07T02:26:02;30.23;;;10.95;;
36001;SDS011;22070;50.922;5.430;2024-01-07T02:28:28;27.50;;;10.13;;
36001;SDS011;22070;50.922;5.430;2024-01-07T02:30:57;30.92;;;11.02;;
36001;SDS011;22070;50.922;5.430;2024-01-07T02:33:23;33.67;;;10.80;;
36001;SDS011;22070;50.922;5.430;2024-01-07T02:35:49;29.87;;;10.53;;
36001;SDS011;22070;50.922;5.430;2024-01-07T02:38:14;24.30;;;8.23;;
36001;SDS011;22070;50.922;5.430;2024-01-07T02:40:40;34.87;;;11.97;;
36001;SDS011;22070;50.922;5.430;2024-01-07T02:43:06;28.37;;;10.60;;
36001;SDS011;22070;50.922;5.430;2024-01-07T02:45:31;28.90;;;10.93;;
36001;SDS011;22070;50.922;5.430;2024-01-07T02:47:57;22.65;;;8.50;;
36001;SDS011;22070;50.922;5.430;2024-01-07T02:50:22;29.13;;;10.53;;
36001;SDS011;22070;50.922;5.430;2024-01-07T02:52:48;23.00;;;9.87;;
36001;SDS011;22070;50.922;5.430;2024-01-07T02:55:14;27.03;;;10.07;;
36001;SDS011;22070;50.922;5.430;2024-01-07T02:57:39;23.27;;;9.70;;
36001;SDS011;22070;50.922;5.430;2024-01-07T03:00:05;28.03;;;10.20;;
36001;SDS011;22070;50.922;5.430;2024-01-07T03:02:32;26.05;;;10.40;;
36001;SDS011;22070;50.922;5.430;2024-01-07T03:04:58;23.00;;;8.73;;
36001;SDS011;22070;50.922;5.430;2024-01-07T03:07:24;29.85;;;10.52;;
36001;SDS011;22070;50.922;5.430;2024-01-07T03:09:50;30.50;;;10.50;;
36001;SDS011;22070;50.922;5.430;2024-01-07T03:12:16;21.97;;;9.00;;
36001;SDS011;22070;50.922;5.430;2024-01-07T03:14:41;27.80;;;8.83;;
36001;SDS011;22070;50.922;5.430;2024-01-07T03:17:07;26.43;;;9.23;;
36001;SDS011;22070;50.922;5.430;2024-01-07T03:19:34;26.48;;;9.35;;
36001;SDS011;22070;50.922;5.430;2024-01-07T03:22:00;19.33;;;8.27;;
36001;SDS011;22070;50.922;5.430;2024-01-07T03:24:26;24.53;;;8.70;;
36001;SDS011;22070;50.922;5.430;2024-01-07T03:26:51;25.47;;;9.33;;
36001;SDS011;22070;50.922;5.430;2024-01-07T03:29:17;26.52;;;9.57;;
36001;SDS011;22070;50.922;5.430;2024-01-07T03:31:43;21.03;;;8.73;;
36001;SDS011;22070;50.922;5.430;2024-01-07T03:34:09;22.47;;;9.30;;
36001;SDS011;22070;50.922;5.430;2024-01-07T03:36:34;27.00;;;9.33;;
36001;SDS011;22070;50.922;5.430;2024-01-07T03:39:00;23.27;;;8.83;;
36001;SDS011;22070;50.922;5.430;2024-01-07T03:41:25;29.47;;;10.27;;
36001;SDS011;22070;50.922;5.430;2024-01-07T03:43:51;24.50;;;9.60;;
36001;SDS011;22070;50.922;5.430;2024-01-07T03:46:18;22.20;;;9.20;;
36001;SDS011;22070;50.922;5.430;2024-01-07T03:48:44;27.42;;;9.35;;
36001;SDS011;22070;50.922;5.430;2024-01-07T03:51:10;22.55;;;8.57;;
36001;SDS011;22070;50.922;5.430;2024-01-07T03:53:36;19.77;;;8.30;;
36001;SDS011;22070;50.922;5.430;2024-01-07T03:56:01;26.10;;;9.50;;
36001;SDS011;22070;50.922;5.430;2024-01-07T03:58:27;19.47;;;7.17;;
36001;SDS011;22070;50.922;5.430;2024-01-07T04:00:53;30.27;;;9.23;;
36001;SDS011;22070;50.922;5.430;2024-01-07T04:03:18;26.97;;;7.90;;
36001;SDS011;22070;50.922;5.430;2024-01-07T04:05:44;29.77;;;10.00;;
36001;SDS011;22070;50.922;5.430;2024-01-07T04:08:12;24.48;;;9.10;;
36001;SDS011;22070;50.922;5.430;2024-01-07T04:10:40;26.08;;;8.93;;
36001;SDS011;22070;50.922;5.430;2024-01-07T04:13:06;21.87;;;8.13;;
36001;SDS011;22070;50.922;5.430;2024-01-07T04:15:32;22.33;;;8.15;;
36001;SDS011;22070;50.922;5.430;2024-01-07T04:18:00;26.42;;;8.23;;
36001;SDS011;22070;50.922;5.430;2024-01-07T04:20:28;21.88;;;7.60;;
36001;SDS011;22070;50.922;5.430;2024-01-07T04:22:53;19.50;;;7.77;;
36001;SDS011;22070;50.922;5.430;2024-01-07T04:25:19;20.53;;;6.77;;
36001;SDS011;22070;50.922;5.430;2024-01-07T04:27:45;21.05;;;7.28;;
36001;SDS011;22070;50.922;5.430;2024-01-07T04:30:10;24.33;;;7.77;;
36001;SDS011;22070;50.922;5.430;2024-01-07T04:32:36;23.33;;;7.53;;
36001;SDS011;22070;50.922;5.430;2024-01-07T04:35:02;13.90;;;5.43;;
36001;SDS011;22070;50.922;5.430;2024-01-07T04:37:28;12.93;;;5.13;;
36001;SDS011;22070;50.922;5.430;2024-01-07T04:39:53;19.63;;;7.03;;
36001;SDS011;22070;50.922;5.430;2024-01-07T04:42:19;21.90;;;6.53;;
36001;SDS011;22070;50.922;5.430;2024-01-07T04:44:44;22.63;;;7.37;;
36001;SDS011;22070;50.922;5.430;2024-01-07T04:47:29;21.83;;;7.40;;
36001;SDS011;22070;50.922;5.430;2024-01-07T04:49:56;21.77;;;7.07;;
36001;SDS011;22070;50.922;5.430;2024-01-07T04:52:22;19.27;;;7.10;;
36001;SDS011;22070;50.922;5.430;2024-01-07T04:54:50;22.73;;;7.75;;
36001;SDS011;22070;50.922;5.430;2024-01-07T04:57:16;19.15;;;7.05;;
36001;SDS011;22070;50.922;5.430;2024-01-07T04:59:42;18.27;;;6.80;;
36001;SDS011;22070;50.922;5.430;2024-01-07T05:02:08;21.67;;;7.53;;
36001;SDS011;22070;50.922;5.430;2024-01-07T05:04:34;21.80;;;7.33;;
36001;SDS011;22070;50.922;5.430;2024-01-07T05:07:00;20.90;;;7.38;;
36001;SDS011;22070;50.922;5.430;2024-01-07T05:09:26;21.97;;;7.77;;
36001;SDS011;22070;50.922;5.430;2024-01-07T05:11:52;19.20;;;6.87;;
36001;SDS011;22070;50.922;5.430;2024-01-07T05:14:17;24.60;;;7.38;;
36001;SDS011;22070;50.922;5.430;2024-01-07T05:16:43;18.97;;;7.37;;
36001;SDS011;22070;50.922;5.430;2024-01-07T05:19:10;18.48;;;6.57;;
36001;SDS011;22070;50.922;5.430;2024-01-07T05:21:35;21.23;;;6.63;;
36001;SDS011;22070;50.922;5.430;2024-01-07T05:24:01;19.07;;;7.30;;
36001;SDS011;22070;50.922;5.430;2024-01-07T05:26:27;19.40;;;6.90;;
36001;SDS011;22070;50.922;5.430;2024-01-07T05:28:52;21.02;;;6.88;;
36001;SDS011;22070;50.922;5.430;2024-01-07T05:31:18;20.60;;;6.97;;
36001;SDS011;22070;50.922;5.430;2024-01-07T05:33:44;22.93;;;8.20;;
36001;SDS011;22070;50.922;5.430;2024-01-07T05:36:13;20.25;;;7.32;;
36001;SDS011;22070;50.922;5.430;2024-01-07T05:38:43;19.95;;;6.75;;
36001;SDS011;22070;50.922;5.430;2024-01-07T05:41:08;19.52;;;6.93;;
36001;SDS011;22070;50.922;5.430;2024-01-07T05:43:35;20.00;;;7.27;;
36001;SDS011;22070;50.922;5.430;2024-01-07T05:46:02;21.83;;;7.25;;
36001;SDS011;22070;50.922;5.430;2024-01-07T05:48:28;16.90;;;6.32;;
36001;SDS011;22070;50.922;5.430;2024-01-07T05:50:54;18.70;;;6.60;;
36001;SDS011;22070;50.922;5.430;2024-01-07T05:53:20;19.30;;;7.10;;
36001;SDS011;22070;50.922;5.430;2024-01-07T05:55:45;17.07;;;5.97;;
36001;SDS011;22070;50.922;5.430;2024-01-07T05:58:11;24.97;;;6.90;;
36001;SDS011;22070;50.922;5.430;2024-01-07T06:00:37;17.13;;;6.18;;
36001;SDS011;22070;50.922;5.430;2024-01-07T06:03:03;18.80;;;6.00;;
36001;SDS011;22070;50.922;5.430;2024-01-07T06:05:29;18.57;;;6.67;;
36001;SDS011;22070;50.922;5.430;2024-01-07T06:07:55;17.77;;;6.33;;
36001;SDS011;22070;50.922;5.430;2024-01-07T06:10:20;16.57;;;6.23;;
36001;SDS011;22070;50.922;5.430;2024-01-07T06:12:46;14.63;;;6.13;;
36001;SDS011;22070;50.922;5.430;2024-01-07T06:15:12;17.50;;;7.13;;
36001;SDS011;22070;50.922;5.430;2024-01-07T06:17:37;18.80;;;6.43;;
36001;SDS011;22070;50.922;5.430;2024-01-07T06:20:03;16.20;;;6.10;;
36001;SDS011;22070;50.922;5.430;2024-01-07T06:22:30;16.17;;;6.05;;
36001;SDS011;22070;50.922;5.430;2024-01-07T06:24:56;21.70;;;6.97;;
36001;SDS011;22070;50.922;5.430;2024-01-07T06:27:22;18.30;;;7.00;;
36001;SDS011;22070;50.922;5.430;2024-01-07T06:29:47;17.07;;;6.60;;
36001;SDS011;22070;50.922;5.430;2024-01-07T06:32:13;18.97;;;6.67;;
36001;SDS011;22070;50.922;5.430;2024-01-07T06:34:39;20.67;;;6.77;;
36001;SDS011;22070;50.922;5.430;2024-01-07T06:37:04;19.67;;;7.07;;
36001;SDS011;22070;50.922;5.430;2024-01-07T06:39:32;20.60;;;6.53;;
36001;SDS011;22070;50.922;5.430;2024-01-07T06:41:59;19.83;;;6.80;;
36001;SDS011;22070;50.922;5.430;2024-01-07T06:44:25;14.87;;;6.50;;
36001;SDS011;22070;50.922;5.430;2024-01-07T06:46:50;16.47;;;6.43;;
36001;SDS011;22070;50.922;5.430;2024-01-07T06:49:16;17.10;;;6.43;;
36001;SDS011;22070;50.922;5.430;2024-01-07T06:51:42;13.20;;;6.60;;
36001;SDS011;22070;50.922;5.430;2024-01-07T06:54:08;14.60;;;6.37;;
36001;SDS011;22070;50.922;5.430;2024-01-07T06:56:34;13.27;;;5.70;;
36001;SDS011;22070;50.922;5.430;2024-01-07T06:58:59;20.57;;;7.40;;
36001;SDS011;22070;50.922;5.430;2024-01-07T07:01:25;20.60;;;7.27;;
36001;SDS011;22070;50.922;5.430;2024-01-07T07:03:51;16.30;;;5.60;;
36001;SDS011;22070;50.922;5.430;2024-01-07T07:06:16;18.93;;;7.27;;
36001;SDS011;22070;50.922;5.430;2024-01-07T07:08:42;15.67;;;6.43;;
36001;SDS011;22070;50.922;5.430;2024-01-07T07:11:08;19.10;;;6.83;;
36001;SDS011;22070;50.922;5.430;2024-01-07T07:13:33;18.88;;;7.40;;
36001;SDS011;22070;50.922;5.430;2024-01-07T07:15:59;14.80;;;6.37;;
36001;SDS011;22070;50.922;5.430;2024-01-07T07:18:25;18.20;;;7.07;;
36001;SDS011;22070;50.922;5.430;2024-01-07T07:20:50;15.47;;;6.23;;
36001;SDS011;22070;50.922;5.430;2024-01-07T07:23:16;15.97;;;6.70;;
36001;SDS011;22070;50.922;5.430;2024-01-07T07:25:42;16.98;;;6.93;;
36001;SDS011;22070;50.922;5.430;2024-01-07T07:28:08;17.00;;;6.53;;
36001;SDS011;22070;50.922;5.430;2024-01-07T07:30:34;16.93;;;6.67;;
36001;SDS011;22070;50.922;5.430;2024-01-07T07:32:59;13.45;;;4.35;;
36001;SDS011;22070;50.922;5.430;2024-01-07T07:35:25;15.43;;;5.93;;
36001;SDS011;22070;50.922;5.430;2024-01-07T07:37:51;14.53;;;6.67;;
36001;SDS011;22070;50.922;5.430;2024-01-07T07:40:16;20.23;;;6.13;;
36001;SDS011;22070;50.922;5.430;2024-01-07T07:42:42;15.10;;;6.23;;
36001;SDS011;22070;50.922;5.430;2024-01-07T07:45:08;17.27;;;6.50;;
36001;SDS011;22070;50.922;5.430;2024-01-07T07:47:34;14.40;;;6.20;;
36001;SDS011;22070;50.922;5.430;2024-01-07T07:50:00;16.43;;;6.07;;
36001;SDS011;22070;50.922;5.430;2024-01-07T07:52:27;14.90;;;6.15;;
36001;SDS011;22070;50.922;5.430;2024-01-07T07:54:52;14.77;;;6.67;;
36001;SDS011;22070;50.922;5.430;2024-01-07T07:57:19;10.97;;;5.53;;
36001;SDS011;22070;50.922;5.430;2024-01-07T07:59:46;19.25;;;7.05;;
36001;SDS011;22070;50.922;5.430;2024-01-07T08:04:38;9.70;;;3.97;;
36001;SDS011;22070;50.922;5.430;2024-01-07T08:07:06;17.30;;;6.70;;
36001;SDS011;22070;50.922;5.430;2024-01-07T08:09:35;15.93;;;6.55;;
36001;SDS011;22070;50.922;5.430;2024-01-07T08:12:04;14.40;;;6.50;;
36001;SDS011;22070;50.922;5.430;2024-01-07T08:14:31;17.25;;;6.88;;
36001;SDS011;22070;50.922;5.430;2024-01-07T08:16:57;15.75;;;6.63;;
36001;SDS011;22070;50.922;5.430;2024-01-07T08:19:22;10.80;;;5.63;;
36001;SDS011;22070;50.922;5.430;2024-01-07T08:21:48;15.85;;;6.70;;
36001;SDS011;22070;50.922;5.430;2024-01-07T08:24:14;15.17;;;6.60;;
36001;SDS011;22070;50.922;5.430;2024-01-07T08:26:39;13.47;;;6.70;;
36001;SDS011;22070;50.922;5.430;2024-01-07T08:29:05;15.73;;;6.80;;
36001;SDS011;22070;50.922;5.430;2024-01-07T08:31:31;13.50;;;5.47;;
36001;SDS011;22070;50.922;5.430;2024-01-07T08:33:57;14.13;;;6.60;;
36001;SDS011;22070;50.922;5.430;2024-01-07T08:36:22;17.60;;;6.83;;
36001;SDS011;22070;50.922;5.430;2024-01-07T08:38:48;17.63;;;7.00;;
36001;SDS011;22070;50.922;5.430;2024-01-07T08:41:17;13.93;;;6.03;;
36001;SDS011;22070;50.922;5.430;2024-01-07T08:43:43;15.20;;;6.35;;
36001;SDS011;22070;50.922;5.430;2024-01-07T08:46:12;15.48;;;5.93;;
36001;SDS011;22070;50.922;5.430;2024-01-07T08:48:38;16.48;;;6.97;;
36001;SDS011;22070;50.922;5.430;2024-01-07T08:51:04;17.10;;;6.73;;
36001;SDS011;22070;50.922;5.430;2024-01-07T08:53:31;17.70;;;6.73;;
36001;SDS011;22070;50.922;5.430;2024-01-07T08:55:57;14.13;;;6.05;;
36001;SDS011;22070;50.922;5.430;2024-01-07T08:58:22;16.27;;;7.13;;
36001;SDS011;22070;50.922;5.430;2024-01-07T09:00:48;18.02;;;7.18;;
36001;SDS011;22070;50.922;5.430;2024-01-07T09:03:14;13.33;;;5.17;;
36001;SDS011;22070;50.922;5.430;2024-01-07T09:05:40;18.40;;;7.07;;
36001;SDS011;22070;50.922;5.430;2024-01-07T09:08:05;19.73;;;7.20;;
36001;SDS011;22070;50.922;5.430;2024-01-07T09:10:31;16.80;;;6.23;;
36001;SDS011;22070;50.922;5.430;2024-01-07T09:15:25;14.33;;;5.90;;
36001;SDS011;22070;50.922;5.430;2024-01-07T09:17:50;19.73;;;7.03;;
36001;SDS011;22070;50.922;5.430;2024-01-07T09:20:16;17.27;;;7.30;;
36001;SDS011;22070;50.922;5.430;2024-01-07T09:22:42;22.77;;;7.73;;
36001;SDS011;22070;50.922;5.430;2024-01-07T09:25:09;16.92;;;7.10;;
36001;SDS011;22070;50.922;5.430;2024-01-07T09:27:35;12.55;;;7.05;;
36001;SDS011;22070;50.922;5.430;2024-01-07T09:30:02;15.70;;;7.30;;
36001;SDS011;22070;50.922;5.430;2024-01-07T09:32:28;19.63;;;7.50;;
36001;SDS011;22070;50.922;5.430;2024-01-07T09:34:54;19.27;;;7.90;;
36001;SDS011;22070;50.922;5.430;2024-01-07T09:37:20;17.90;;;7.77;;
36001;SDS011;22070;50.922;5.430;2024-01-07T09:39:45;16.93;;;5.07;;
36001;SDS011;22070;50.922;5.430;2024-01-07T09:42:15;12.80;;;6.27;;
36001;SDS011;22070;50.922;5.430;2024-01-07T09:44:42;15.90;;;7.40;;
36001;SDS011;22070;50.922;5.430;2024-01-07T09:47:12;16.77;;;7.63;;
36001;SDS011;22070;50.922;5.430;2024-01-07T09:49:40;17.17;;;7.22;;
36001;SDS011;22070;50.922;5.430;2024-01-07T09:52:07;20.75;;;8.07;;
36001;SDS011;22070;50.922;5.430;2024-01-07T09:54:33;18.40;;;7.50;;
36001;SDS011;22070;50.922;5.430;2024-01-07T09:57:05;17.75;;;7.50;;
36001;SDS011;22070;50.922;5.430;2024-01-07T09:59:32;17.30;;;7.18;;
36001;SDS011;22070;50.922;5.430;2024-01-07T10:01:59;15.48;;;6.35;;
36001;SDS011;22070;50.922;5.430;2024-01-07T10:04:25;15.67;;;6.77;;
36001;SDS011;22070;50.922;5.430;2024-01-07T10:06:52;21.20;;;7.68;;
36001;SDS011;22070;50.922;5.430;2024-01-07T10:09:19;15.20;;;7.20;;
36001;SDS011;22070;50.922;5.430;2024-01-07T10:11:47;16.38;;;6.50;;
36001;SDS011;22070;50.922;5.430;2024-01-07T10:14:12;14.00;;;6.70;;
36001;SDS011;22070;50.922;5.430;2024-01-07T10:16:38;22.27;;;7.67;;
36001;SDS011;22070;50.922;5.430;2024-01-07T10:19:04;17.40;;;7.50;;
36001;SDS011;22070;50.922;5.430;2024-01-07T10:21:30;17.00;;;7.43;;
36001;SDS011;22070;50.922;5.430;2024-01-07T10:26:38;21.60;;;7.97;;
36001;SDS011;22070;50.922;5.430;2024-01-07T10:31:31;16.48;;;6.65;;
36001;SDS011;22070;50.922;5.430;2024-01-07T10:33:57;17.45;;;7.22;;
36001;SDS011;22070;50.922;5.430;2024-01-07T10:36:23;18.90;;;8.03;;
36001;SDS011;22070;50.922;5.430;2024-01-07T10:38:50;18.92;;;7.05;;
36001;SDS011;22070;50.922;5.430;2024-01-07T10:41:19;19.47;;;7.37;;
36001;SDS011;22070;50.922;5.430;2024-01-07T10:43:48;19.58;;;8.40;;
36001;SDS011;22070;50.922;5.430;2024-01-07T10:46:15;15.98;;;6.82;;
36001;SDS011;22070;50.922;5.430;2024-01-07T10:48:45;19.60;;;8.65;;
36001;SDS011;22070;50.922;5.430;2024-01-07T10:51:20;16.48;;;6.90;;
36001;SDS011;22070;50.922;5.430;2024-01-07T10:53:48;16.83;;;7.17;;
36001;SDS011;22070;50.922;5.430;2024-01-07T10:56:22;17.00;;;7.28;;
36001;SDS011;22070;50.922;5.430;2024-01-07T10:58:51;19.60;;;7.72;;
36001;SDS011;22070;50.922;5.430;2024-01-07T11:01:18;15.57;;;7.32;;
36001;SDS011;22070;50.922;5.430;2024-01-07T11:03:51;20.55;;;7.88;;
36001;SDS011;22070;50.922;5.430;2024-01-07T11:12:31;18.15;;;7.85;;
36001;SDS011;22070;50.922;5.430;2024-01-07T11:14:57;15.73;;;7.35;;
36001;SDS011;22070;50.922;5.430;2024-01-07T11:17:39;22.17;;;7.93;;
36001;SDS011;22070;50.922;5.430;2024-01-07T11:20:11;16.20;;;7.88;;
36001;SDS011;22070;50.922;5.430;2024-01-07T11:22:39;16.92;;;7.45;;
36001;SDS011;22070;50.922;5.430;2024-01-07T11:25:27;19.70;;;8.03;;
36001;SDS011;22070;50.922;5.430;2024-01-07T11:27:57;22.23;;;8.23;;
36001;SDS011;22070;50.922;5.430;2024-01-07T11:30:25;18.40;;;8.02;;
36001;SDS011;22070;50.922;5.430;2024-01-07T11:32:58;12.70;;;5.40;;
36001;SDS011;22070;50.922;5.430;2024-01-07T11:35:53;16.42;;;7.18;;
36001;SDS011;22070;50.922;5.430;2024-01-07T11:38:21;17.67;;;8.88;;
36001;SDS011;22070;50.922;5.430;2024-01-07T11:40:47;20.60;;;7.90;;
36001;SDS011;22070;50.922;5.430;2024-01-07T11:43:14;20.75;;;8.20;;
36001;SDS011;22070;50.922;5.430;2024-01-07T11:45:40;18.63;;;8.00;;
36001;SDS011;22070;50.922;5.430;2024-01-07T11:48:06;19.15;;;7.90;;
36001;SDS011;22070;50.922;5.430;2024-01-07T11:50:32;19.10;;;7.77;;
36001;SDS011;22070;50.922;5.430;2024-01-07T11:52:58;17.63;;;8.73;;
36001;SDS011;22070;50.922;5.430;2024-01-07T11:55:24;20.67;;;9.55;;
36001;SDS011;22070;50.922;5.430;2024-01-07T11:57:52;20.90;;;8.88;;
36001;SDS011;22070;50.922;5.430;2024-01-07T12:00:17;20.90;;;8.47;;
36001;SDS011;22070;50.922;5.430;2024-01-07T12:02:43;21.17;;;8.93;;
36001;SDS011;22070;50.922;5.430;2024-01-07T12:05:11;21.83;;;8.82;;
36001;SDS011;22070;50.922;5.430;2024-01-07T12:10:03;13.00;;;5.27;;
36001;SDS011;22070;50.922;5.430;2024-01-07T12:12:35;19.25;;;8.38;;
36001;SDS011;22070;50.922;5.430;2024-01-07T12:15:01;19.20;;;7.97;;
36001;SDS011;22070;50.922;5.430;2024-01-07T12:17:29;20.58;;;8.10;;
36001;SDS011;22070;50.922;5.430;2024-01-07T12:19:56;19.73;;;8.00;;
36001;SDS011;22070;50.922;5.430;2024-01-07T12:22:22;15.80;;;7.07;;
36001;SDS011;22070;50.922;5.430;2024-01-07T12:24:59;18.40;;;7.53;;
36001;SDS011;22070;50.922;5.430;2024-01-07T12:27:25;19.95;;;8.25;;
36001;SDS011;22070;50.922;5.430;2024-01-07T12:29:57;21.50;;;7.43;;
36001;SDS011;22070;50.922;5.430;2024-01-07T12:32:27;15.57;;;7.40;;
36001;SDS011;22070;50.922;5.430;2024-01-07T12:34:56;19.50;;;7.57;;
36001;SDS011;22070;50.922;5.430;2024-01-07T12:37:25;16.85;;;8.65;;
36001;SDS011;22070;50.922;5.430;2024-01-07T12:39:52;18.67;;;7.13;;
36001;SDS011;22070;50.922;5.430;2024-01-07T12:42:17;18.63;;;7.57;;
36001;SDS011;22070;50.922;5.430;2024-01-07T12:44:43;14.05;;;6.90;;
36001;SDS011;22070;50.922;5.430;2024-01-07T12:47:09;16.80;;;7.60;;
36001;SDS011;22070;50.922;5.430;2024-01-07T12:49:35;16.87;;;8.03;;
36001;SDS011;22070;50.922;5.430;2024-01-07T12:52:00;20.47;;;8.33;;
36001;SDS011;22070;50.922;5.430;2024-01-07T12:54:26;16.60;;;7.93;;
36001;SDS011;22070;50.922;5.430;2024-01-07T12:56:52;14.23;;;7.00;;
36001;SDS011;22070;50.922;5.430;2024-01-07T12:59:18;15.27;;;6.33;;
36001;SDS011;22070;50.922;5.430;2024-01-07T13:01:43;14.73;;;6.17;;
36001;SDS011;22070;50.922;5.430;2024-01-07T13:04:09;13.73;;;6.63;;
36001;SDS011;22070;50.922;5.430;2024-01-07T13:06:35;15.93;;;6.43;;
36001;SDS011;22070;50.922;5.430;2024-01-07T13:09:00;17.20;;;7.23;;
36001;SDS011;22070;50.922;5.430;2024-01-07T13:11:29;15.38;;;6.90;;
36001;SDS011;22070;50.922;5.430;2024-01-07T13:13:55;9.40;;;5.10;;
36001;SDS011;22070;50.922;5.430;2024-01-07T13:16:25;12.15;;;6.60;;
36001;SDS011;22070;50.922;5.430;2024-01-07T13:18:51;13.70;;;6.57;;
36001;SDS011;22070;50.922;5.430;2024-01-07T13:21:16;12.70;;;6.03;;
36001;SDS011;22070;50.922;5.430;2024-01-07T13:23:43;12.13;;;6.50;;
36001;SDS011;22070;50.922;5.430;2024-01-07T13:26:09;10.57;;;4.80;;
36001;SDS011;22070;50.922;5.430;2024-01-07T13:28:35;9.70;;;5.72;;
36001;SDS011;22070;50.922;5.430;2024-01-07T13:31:01;9.53;;;5.53;;
36001;SDS011;22070;50.922;5.430;2024-01-07T13:33:28;10.82;;;5.38;;
36001;SDS011;22070;50.922;5.430;2024-01-07T13:35:54;10.23;;;4.90;;
36001;SDS011;22070;50.922;5.430;2024-01-07T13:38:20;11.37;;;6.17;;
36001;SDS011;22070;50.922;5.430;2024-01-07T13:40:46;14.87;;;6.53;;
36001;SDS011;22070;50.922;5.430;2024-01-07T13:43:12;13.30;;;5.85;;
36001;SDS011;22070;50.922;5.430;2024-01-07T13:45:38;7.77;;;4.10;;
36001;SDS011;22070;50.922;5.430;2024-01-07T13:48:04;15.00;;;5.67;;
36001;SDS011;22070;50.922;5.430;2024-01-07T13:50:32;12.60;;;5.47;;
36001;SDS011;22070;50.922;5.430;2024-01-07T13:52:58;11.37;;;6.37;;
36001;SDS011;22070;50.922;5.430;2024-01-07T13:55:24;11.97;;;5.83;;
36001;SDS011;22070;50.922;5.430;2024-01-07T13:57:50;9.07;;;4.87;;
36001;SDS011;22070;50.922;5.430;2024-01-07T14:00:15;14.80;;;5.80;;
36001;SDS011;22070;50.922;5.430;2024-01-07T14:02:43;12.90;;;5.97;;
36001;SDS011;22070;50.922;5.430;2024-01-07T14:05:11;13.57;;;6.35;;
36001;SDS011;22070;50.922;5.430;2024-01-07T14:07:37;10.20;;;4.72;;
36001;SDS011;22070;50.922;5.430;2024-01-07T14:10:04;11.40;;;5.85;;
36001;SDS011;22070;50.922;5.430;2024-01-07T14:12:31;14.70;;;5.60;;
36001;SDS011;22070;50.922;5.430;2024-01-07T14:14:57;11.50;;;4.97;;
36001;SDS011;22070;50.922;5.430;2024-01-07T14:19:49;15.27;;;5.57;;
36001;SDS011;22070;50.922;5.430;2024-01-07T14:22:17;9.15;;;4.75;;
36001;SDS011;22070;50.922;5.430;2024-01-07T14:24:43;11.90;;;5.73;;
36001;SDS011;22070;50.922;5.430;2024-01-07T14:27:08;11.50;;;5.47;;
36001;SDS011;22070;50.922;5.430;2024-01-07T14:29:36;10.95;;;4.25;;
36001;SDS011;22070;50.922;5.430;2024-01-07T14:32:03;10.43;;;4.90;;
36001;SDS011;22070;50.922;5.430;2024-01-07T14:34:31;9.07;;;4.40;;
36001;SDS011;22070;50.922;5.430;2024-01-07T14:36:57;9.30;;;4.00;;
36001;SDS011;22070;50.922;5.430;2024-01-07T14:39:23;9.13;;;4.93;;
36001;SDS011;22070;50.922;5.430;2024-01-07T14:41:48;10.40;;;4.93;;
36001;SDS011;22070;50.922;5.430;2024-01-07T14:44:14;11.07;;;5.10;;
36001;SDS011;22070;50.922;5.430;2024-01-07T14:46:40;10.27;;;5.13;;
36001;SDS011;22070;50.922;5.430;2024-01-07T14:49:05;11.90;;;5.20;;
36001;SDS011;22070;50.922;5.430;2024-01-07T14:51:32;10.57;;;4.97;;
36001;SDS011;22070;50.922;5.430;2024-01-07T14:53:57;10.43;;;4.73;;